Time;durP1;ratioP1;P1;durP2;ratioP2;P2;SDS_P1;SDS_P2;PMS_P1;PMS_P2;Temp;Humidity;BMP_temperature;BMP_pressure;BME280_temperature;BME280_humidity;BME280_pressure;Samples;Min_cycle;Max_cycle;Signal;HPM_P1;HPM_P2
2021/01/28 00:31:27;;;;;;;43.95;20.40;;;7.40;95.40;;;;;;5042132;28;20462;-73
2021/01/28 00:33:52;;;;;;;43.67;21.20;;;7.40;95.40;;;;;;5037130;28;20048;-75
2021/01/28 00:36:18;;;;;;;46.20;20.88;;;7.30;95.40;;;;;;5039806;28;20037;-78
2021/01/28 00:38:43;;;;;;;39.55;18.92;;;7.30;95.40;;;;;;5041793;28;20037;-74
2021/01/28 00:41:10;;;;;;;42.97;20.45;;;7.40;95.40;;;;;;5041616;28;20127;-74
2021/01/28 00:43:37;;;;;;;40.92;19.33;;;7.40;95.40;;;;;;5038754;28;20029;-75
2021/01/28 00:46:03;;;;;;;40.55;19.85;;;7.40;95.40;;;;;;5037440;28;20095;-74
2021/01/28 00:48:29;;;;;;;39.13;18.98;;;7.40;95.50;;;;;;5039858;28;20033;-74
2021/01/28 00:50:57;;;;;;;39.88;19.98;;;7.40;95.40;;;;;;5037136;28;20095;-77
2021/01/28 00:53:23;;;;;;;39.60;18.90;;;7.40;95.40;;;;;;5034738;28;20119;-74
2021/01/28 00:55:49;;;;;;;37.67;18.98;;;7.40;95.40;;;;;;5037414;28;20051;-74
2021/01/28 00:58:17;;;;;;;42.50;20.10;;;7.40;95.40;;;;;;5037273;28;20477;-74
2021/01/28 01:00:44;;;;;;;40.20;18.20;;;7.40;95.40;;;;;;5035309;28;20103;-75
2021/01/28 01:03:13;;;;;;;39.92;19.52;;;7.40;95.40;;;;;;5052590;28;20473;-76
2021/01/28 01:05:38;;;;;;;38.35;18.48;;;7.30;95.40;;;;;;5039675;28;20048;-74
2021/01/28 01:08:07;;;;;;;35.78;17.33;;;7.30;95.40;;;;;;5040447;28;20033;-74
2021/01/28 01:10:56;;;;;;;40.95;20.15;;;7.40;95.40;;;;;;5039681;28;20040;-73
2021/01/28 01:13:25;;;;;;;45.70;19.60;;;7.40;95.40;;;;;;5049892;28;20375;-74
2021/01/28 01:15:51;;;;;;;40.28;18.48;;;7.30;95.40;;;;;;5039155;28;20037;-75
2021/01/28 01:18:20;;;;;;;43.55;19.52;;;7.30;95.40;;;;;;5038809;28;20502;-73
2021/01/28 01:20:46;;;;;;;40.85;18.77;;;7.30;95.40;;;;;;5038803;28;20045;-74
2021/01/28 01:23:12;;;;;;;36.33;17.58;;;7.40;95.40;;;;;;5047314;28;20473;-73
2021/01/28 01:25:37;;;;;;;38.20;18.50;;;7.30;95.40;;;;;;5039464;28;20052;-73
2021/01/28 01:28:03;;;;;;;39.65;18.40;;;7.40;95.40;;;;;;5038153;28;20040;-72
2021/01/28 01:30:38;;;;;;;38.47;18.48;;;7.40;95.50;;;;;;5042418;28;20029;-73
2021/01/28 01:33:05;;;;;;;38.88;18.63;;;7.40;95.40;;;;;;5038559;28;20392;-73
2021/01/28 01:35:30;;;;;;;32.97;16.98;;;7.40;95.40;;;;;;5040265;28;20033;-73
2021/01/28 01:37:57;;;;;;;36.50;17.55;;;7.40;95.50;;;;;;5039292;28;20083;-74
2021/01/28 01:40:48;;;;;;;36.63;17.58;;;7.40;95.50;;;;;;5040366;28;20108;-73
2021/01/28 01:43:14;;;;;;;38.50;18.20;;;7.40;95.50;;;;;;5032574;28;20057;-77
2021/01/28 01:45:45;;;;;;;35.38;18.02;;;7.40;95.50;;;;;;5040581;28;20039;-76
2021/01/28 01:48:23;;;;;;;39.53;19.13;;;7.40;95.50;;;;;;5032330;28;20143;-73
2021/01/28 01:51:01;;;;;;;34.42;17.83;;;7.40;95.50;;;;;;5035369;28;20029;-74
2021/01/28 01:53:27;;;;;;;34.88;17.38;;;7.40;95.50;;;;;;5043735;28;20025;-75
2021/01/28 01:55:59;;;;;;;33.38;16.92;;;7.40;95.50;;;;;;5040158;28;20549;-74
2021/01/28 01:58:45;;;;;;;33.67;17.25;;;7.40;95.50;;;;;;5037892;28;20101;-72
2021/01/28 02:01:12;;;;;;;32.33;17.58;;;7.50;95.50;;;;;;5027201;28;20544;-75
2021/01/28 02:03:39;;;;;;;31.40;16.25;;;7.50;95.50;;;;;;5044199;28;20063;-73
2021/01/28 02:06:26;;;;;;;31.58;16.83;;;7.50;95.50;;;;;;5030321;28;20106;-76
2021/01/28 02:08:54;;;;;;;30.00;16.20;;;7.50;95.50;;;;;;5051781;28;20128;-74
2021/01/28 02:11:19;;;;;;;28.88;15.60;;;7.50;95.50;;;;;;5033615;28;20037;-72
2021/01/28 02:13:47;;;;;;;27.33;14.23;;;7.40;95.50;;;;;;5039467;28;20033;-72
2021/01/28 02:16:16;;;;;;;27.48;15.00;;;7.40;95.50;;;;;;5029820;28;20408;-73
2021/01/28 02:18:43;;;;;;;28.63;14.68;;;7.50;95.60;;;;;;5036366;28;20380;-72
2021/01/28 02:21:30;;;;;;;24.30;13.25;;;7.50;95.60;;;;;;5034416;28;20662;-73
2021/01/28 02:24:26;;;;;;;26.85;13.60;;;7.50;95.50;;;;;;5032881;28;20033;-73
2021/01/28 02:26:52;;;;;;;;;;;7.50;95.60;;;;;;5041385;28;20044;-72
2021/01/28 02:29:20;;;;;;;24.95;13.07;;;7.50;95.50;;;;;;5034612;28;19921;-72
2021/01/28 02:31:48;;;;;;;23.08;12.70;;;7.50;95.50;;;;;;5042004;28;20037;-72
2021/01/28 02:34:14;;;;;;;24.05;13.13;;;7.50;95.50;;;;;;5050273;28;20045;-74
2021/01/28 02:36:44;;;;;;;22.88;11.70;;;7.50;95.50;;;;;;5048629;28;20072;-74
2021/01/28 02:39:12;;;;;;;21.10;11.25;;;7.50;95.50;;;;;;5039070;28;20037;-74
2021/01/28 02:41:39;;;;;;;21.35;11.13;;;7.50;95.60;;;;;;5036685;28;20108;-73
2021/01/28 02:44:05;;;;;;;23.55;11.80;;;7.50;95.60;;;;;;5035445;28;20080;-72
2021/01/28 02:46:31;;;;;;;18.60;10.52;;;7.50;95.50;;;;;;5040924;28;20067;-76
2021/01/28 02:48:57;;;;;;;19.70;10.80;;;7.50;95.60;;;;;;5033964;28;20030;-72
2021/01/28 02:51:23;;;;;;;19.25;10.82;;;7.50;95.60;;;;;;5036950;28;20429;-73
2021/01/28 02:53:54;;;;;;;19.08;11.27;;;7.50;95.60;;;;;;5037060;28;20065;-73
2021/01/28 02:56:25;;;;;;;19.15;10.95;;;7.60;95.60;;;;;;5038271;28;20043;-72
2021/01/28 02:58:51;;;;;;;19.65;11.27;;;7.60;95.60;;;;;;5043248;28;20029;-72
2021/01/28 03:01:17;;;;;;;21.05;10.93;;;7.60;95.60;;;;;;5047975;28;20158;-76
2021/01/28 03:03:43;;;;;;;19.50;11.40;;;7.60;95.60;;;;;;5043705;28;20033;-72
2021/01/28 03:06:10;;;;;;;17.75;10.77;;;7.60;95.50;;;;;;5035430;28;21337;-72
2021/01/28 03:08:36;;;;;;;17.60;10.80;;;7.60;95.50;;;;;;5033729;28;20037;-73
2021/01/28 03:11:03;;;;;;;18.17;10.80;;;7.60;95.50;;;;;;5035199;28;20056;-75
2021/01/28 03:13:29;;;;;;;19.48;11.75;;;7.60;95.60;;;;;;5036505;28;20037;-74
2021/01/28 03:15:56;;;;;;;17.15;10.65;;;7.60;95.60;;;;;;5042018;28;20071;-73
2021/01/28 03:18:23;;;;;;;17.45;10.77;;;7.60;95.50;;;;;;5040630;28;20059;-75
2021/01/28 03:20:48;;;;;;;17.35;10.63;;;7.60;95.50;;;;;;5034276;28;20063;-76
2021/01/28 03:23:15;;;;;;;16.90;10.50;;;7.60;95.50;;;;;;5039725;28;20040;-73
2021/01/28 03:25:41;;;;;;;17.15;10.75;;;7.60;95.50;;;;;;5037110;28;20048;-72
2021/01/28 03:28:07;;;;;;;17.02;11.00;;;7.60;95.50;;;;;;5031116;28;20484;-75
2021/01/28 03:30:37;;;;;;;17.90;10.90;;;7.60;95.50;;;;;;5036714;28;20032;-73
2021/01/28 03:33:06;;;;;;;16.92;10.50;;;7.60;95.50;;;;;;5035875;28;20133;-72
2021/01/28 03:35:32;;;;;;;18.73;10.60;;;7.60;95.50;;;;;;5033596;28;20486;-74
2021/01/28 03:37:58;;;;;;;17.27;10.55;;;7.70;95.50;;;;;;5039619;28;20619;-76
2021/01/28 03:40:26;;;;;;;21.33;10.88;;;7.60;95.50;;;;;;5035323;28;20045;-72
2021/01/28 03:42:52;;;;;;;17.70;11.48;;;7.70;95.50;;;;;;5043170;28;20037;-73
2021/01/28 03:45:18;;;;;;;17.65;11.30;;;7.70;95.50;;;;;;5034655;28;20124;-75
2021/01/28 03:47:44;;;;;;;18.42;11.35;;;7.60;95.50;;;;;;5040614;28;20102;-73
2021/01/28 03:50:12;;;;;;;16.77;11.15;;;7.70;95.50;;;;;;5034779;28;20037;-73
2021/01/28 03:52:38;;;;;;;20.05;12.27;;;7.70;95.50;;;;;;5035249;28;20607;-73
2021/01/28 03:55:04;;;;;;;17.33;10.75;;;7.70;95.50;;;;;;5036913;28;20036;-74
2021/01/28 03:57:30;;;;;;;16.50;11.07;;;7.70;95.50;;;;;;5035030;28;20044;-72
2021/01/28 03:59:55;;;;;;;15.57;10.68;;;7.70;95.50;;;;;;5036363;28;20055;-78
2021/01/28 04:02:22;;;;;;;18.05;11.60;;;7.70;95.50;;;;;;5034779;28;20081;-72
2021/01/28 04:04:47;;;;;;;17.13;11.23;;;7.70;95.50;;;;;;5037538;28;20124;-74
2021/01/28 04:07:13;;;;;;;16.73;11.30;;;7.70;95.50;;;;;;5039832;28;20068;-76
2021/01/28 04:09:39;;;;;;;17.33;10.90;;;7.70;95.50;;;;;;5041566;28;20502;-72
2021/01/28 04:12:05;;;;;;;16.05;10.60;;;7.70;95.50;;;;;;5034380;28;20468;-74
2021/01/28 04:14:31;;;;;;;18.13;10.63;;;7.70;95.40;;;;;;5039728;28;20066;-76
2021/01/28 04:16:56;;;;;;;15.27;9.98;;;7.70;95.40;;;;;;5048430;28;20045;-76
2021/01/28 04:19:22;;;;;;;16.25;10.45;;;7.80;95.50;;;;;;5035099;28;20537;-75
2021/01/28 04:21:48;;;;;;;13.93;9.93;;;7.80;95.50;;;;;;5037592;28;20385;-72
2021/01/28 04:24:13;;;;;;;16.02;10.38;;;7.70;95.50;;;;;;5037935;28;20044;-75
2021/01/28 04:26:39;;;;;;;14.82;10.13;;;7.70;95.40;;;;;;5043573;28;20044;-76
2021/01/28 04:29:05;;;;;;;15.00;9.27;;;7.70;95.50;;;;;;5037320;28;20037;-76
2021/01/28 04:31:31;;;;;;;14.05;9.63;;;7.80;95.50;;;;;;5031626;28;20469;-74
2021/01/28 04:33:57;;;;;;;13.75;9.27;;;7.80;95.40;;;;;;5040162;28;20142;-77
2021/01/28 04:36:25;;;;;;;15.35;10.07;;;7.70;95.50;;;;;;5034680;28;20041;-75
2021/01/28 04:38:51;;;;;;;13.77;9.40;;;7.80;95.40;;;;;;5044560;28;20087;-76
2021/01/28 04:41:25;;;;;;;14.38;9.98;;;7.80;95.50;;;;;;5037916;28;20078;-74
2021/01/28 04:43:53;;;;;;;13.43;9.13;;;7.80;95.50;;;;;;5035539;28;20045;-74
2021/01/28 04:46:36;;;;;;;17.15;10.18;;;7.80;95.50;;;;;;5033925;28;20431;-74
2021/01/28 04:49:05;;;;;;;14.23;9.65;;;7.80;95.50;;;;;;5037693;28;20103;-74
2021/01/28 04:51:32;;;;;;;15.82;9.98;;;7.80;95.50;;;;;;5054757;28;20389;-76
2021/01/28 04:54:09;;;;;;;14.38;9.65;;;7.80;95.50;;;;;;5053718;28;20033;-78
2021/01/28 04:56:35;;;;;;;13.32;8.85;;;7.80;95.50;;;;;;5045210;28;20056;-75
2021/01/28 04:59:18;;;;;;;13.57;9.25;;;7.90;95.50;;;;;;5036855;28;20033;-74
2021/01/28 05:01:43;;;;;;;11.80;8.38;;;7.80;95.50;;;;;;5039113;28;20051;-75
2021/01/28 05:04:13;;;;;;;13.02;8.68;;;7.80;95.50;;;;;;5042185;28;20032;-75
2021/01/28 05:06:40;;;;;;;12.30;8.38;;;7.90;95.50;;;;;;5044620;28;20983;-73
2021/01/28 05:09:06;;;;;;;13.13;8.65;;;7.80;95.50;;;;;;5040578;28;20052;-76
2021/01/28 05:11:35;;;;;;;11.80;8.15;;;7.90;95.50;;;;;;5035034;28;20473;-74
2021/01/28 05:14:16;;;;;;;11.77;7.60;;;7.90;95.50;;;;;;5035277;28;20033;-75
2021/01/28 05:16:42;;;;;;;10.80;7.10;;;7.90;95.50;;;;;;5040801;28;20527;-74
2021/01/28 05:19:10;;;;;;;13.13;7.70;;;7.90;95.50;;;;;;5037341;28;20486;-75
2021/01/28 05:21:44;;;;;;;12.15;8.35;;;7.90;95.50;;;;;;5036605;28;20041;-73
2021/01/28 05:24:27;;;;;;;11.90;7.90;;;7.90;95.50;;;;;;5034543;28;20068;-74
2021/01/28 05:26:53;;;;;;;11.75;8.10;;;7.90;95.50;;;;;;5037315;28;20657;-75
2021/01/28 05:29:28;;;;;;;10.90;7.57;;;7.90;95.50;;;;;;5034734;28;20033;-76
2021/01/28 05:31:56;;;;;;;10.60;7.65;;;8.00;95.50;;;;;;5041229;28;20033;-75
2021/01/28 05:34:26;;;;;;;11.95;8.52;;;8.00;95.60;;;;;;5036288;28;20115;-73
2021/01/28 05:36:59;;;;;;;11.35;7.68;;;8.00;95.60;;;;;;5039930;28;20048;-73
2021/01/28 05:39:35;;;;;;;11.13;7.80;;;8.00;95.60;;;;;;5040527;28;20164;-75
2021/01/28 05:42:06;;;;;;;12.85;9.30;;;8.00;95.60;;;;;;5036875;28;20439;-74
2021/01/28 05:44:38;;;;;;;12.27;9.07;;;8.10;95.60;;;;;;5035061;28;20552;-75
2021/01/28 05:47:06;;;;;;;11.60;7.68;;;8.10;95.60;;;;;;5036231;28;20487;-74
2021/01/28 05:49:35;;;;;;;13.15;8.02;;;8.10;95.60;;;;;;5036323;28;20137;-74
2021/01/28 05:52:19;;;;;;;11.43;7.57;;;8.10;95.60;;;;;;5034285;28;20031;-73
2021/01/28 05:55:11;;;;;;;10.32;7.43;;;8.10;95.60;;;;;;5035575;28;20042;-74
2021/01/28 05:57:59;;;;;;;9.68;6.80;;;8.10;95.60;;;;;;5037873;28;20091;-74
2021/01/28 06:00:50;;;;;;;9.68;7.13;;;8.20;95.60;;;;;;5038087;28;20399;-73
2021/01/28 06:03:16;;;;;;;9.77;7.45;;;8.20;95.50;;;;;;5036755;28;20053;-74
2021/01/28 06:05:51;;;;;;;11.77;8.10;;;8.10;95.50;;;;;;5037778;28;20052;-74
2021/01/28 06:08:46;;;;;;;10.93;7.75;;;8.20;95.50;;;;;;5035454;28;20585;-74
2021/01/28 06:11:33;;;;;;;12.75;7.68;;;8.20;95.50;;;;;;5019823;28;20127;-78
2021/01/28 06:14:07;;;;;;;11.20;7.85;;;8.20;95.50;;;;;;5033143;28;20045;-73
2021/01/28 06:16:59;;;;;;;11.02;7.82;;;8.20;95.50;;;;;;5050967;28;20486;-75
2021/01/28 06:19:34;;;;;;;11.20;8.07;;;8.20;95.60;;;;;;5024895;28;20899;-72
2021/01/28 06:22:30;;;;;;;11.20;8.30;;;8.30;95.60;;;;;;5035788;28;20120;-74
2021/01/28 06:25:34;;;;;;;12.23;7.90;;;8.30;95.60;;;;;;5041582;28;20065;-73
2021/01/28 06:28:15;;;;;;;11.90;8.50;;;8.30;95.60;;;;;;5033155;28;20038;-72
2021/01/28 06:31:11;;;;;;;12.50;8.32;;;8.30;95.60;;;;;;5036683;28;20448;-74
2021/01/28 06:33:52;;;;;;;11.85;8.57;;;8.30;95.60;;;;;;5036985;28;20412;-73
2021/01/28 06:36:17;;;;;;;13.05;8.55;;;8.30;95.60;;;;;;5036543;28;20052;-74
2021/01/28 06:39:04;;;;;;;12.15;8.32;;;8.40;95.60;;;;;;5042653;28;20661;-74
2021/01/28 06:41:34;;;;;;;10.95;8.48;;;8.40;95.60;;;;;;5036296;28;20454;-72
2021/01/28 06:44:02;;;;;;;11.30;8.15;;;8.40;95.60;;;;;;5037332;28;20037;-73
2021/01/28 06:46:44;;;;;;;11.07;8.15;;;8.40;95.60;;;;;;5031989;28;20045;-76
2021/01/28 06:49:49;;;;;;;11.52;9.00;;;8.40;95.60;;;;;;5032033;28;20057;-74
2021/01/28 06:52:29;;;;;;;10.90;7.95;;;8.50;95.60;;;;;;5039207;28;20050;-73
2021/01/28 06:55:08;;;;;;;12.70;8.45;;;8.50;95.70;;;;;;5037891;28;20049;-76
2021/01/28 06:58:19;;;;;;;11.00;8.63;;;8.60;95.70;;;;;;5051669;28;20041;-75
2021/01/28 07:01:04;;;;;;;12.18;8.40;;;8.60;95.70;;;;;;5031795;28;20067;-74
2021/01/28 07:03:49;;;;;;;11.82;8.63;;;8.70;95.70;;;;;;5037019;28;20064;-76
2021/01/28 07:06:26;;;;;;;11.95;7.88;;;8.70;95.80;;;;;;5037300;28;20033;-73
2021/01/28 07:09:15;;;;;;;11.57;8.10;;;8.80;95.80;;;;;;5041339;28;20119;-75
2021/01/28 07:11:43;;;;;;;10.52;7.18;;;8.80;95.80;;;;;;5032649;28;20044;-75
2021/01/28 07:14:14;;;;;;;11.77;7.40;;;8.80;95.80;;;;;;5036835;28;20029;-72
2021/01/28 07:16:49;;;;;;;10.80;7.13;;;8.90;95.90;;;;;;5036202;28;20440;-75
2021/01/28 07:19:23;;;;;;;10.23;6.95;;;9.00;95.90;;;;;;5036022;28;20139;-74
2021/01/28 07:21:52;;;;;;;9.77;7.03;;;9.00;95.90;;;;;;5036068;28;20421;-76
2021/01/28 07:24:25;;;;;;;10.48;6.57;;;9.10;95.90;;;;;;5032584;28;20033;-75
2021/01/28 07:27:12;;;;;;;10.98;6.65;;;9.10;96.00;;;;;;5031906;28;21376;-75
2021/01/28 07:29:44;;;;;;;11.00;6.45;;;9.10;96.00;;;;;;5036872;28;20417;-76
2021/01/28 07:32:11;;;;;;;9.93;6.45;;;9.20;96.00;;;;;;5033393;28;20083;-74
2021/01/28 07:34:37;;;;;;;9.93;6.95;;;9.30;96.00;;;;;;5034295;28;20440;-75
2021/01/28 07:37:21;;;;;;;11.40;7.13;;;9.30;96.00;;;;;;5033387;28;21101;-75
2021/01/28 07:39:47;;;;;;;11.00;7.40;;;9.40;96.00;;;;;;5046209;28;20657;-74
2021/01/28 07:42:21;;;;;;;11.57;7.93;;;9.40;96.00;;;;;;5033903;28;20044;-75
2021/01/28 07:44:52;;;;;;;;;;;9.40;96.00;;;;;;5050601;28;20033;-76
2021/01/28 07:47:30;;;;;;;12.05;8.00;;;9.40;96.00;;;;;;5051096;28;20407;-73
2021/01/28 07:50:14;;;;;;;10.45;7.60;;;9.50;96.00;;;;;;5034749;28;20045;-74
2021/01/28 07:52:41;;;;;;;11.17;8.23;;;9.40;96.00;;;;;;5034235;28;20038;-73
2021/01/28 07:55:36;;;;;;;13.55;9.02;;;9.60;96.00;;;;;;5037197;28;20288;-74
2021/01/28 07:58:04;;;;;;;12.98;8.82;;;9.60;96.00;;;;;;5037247;28;20110;-76
2021/01/28 08:00:39;;;;;;;14.63;9.88;;;9.60;96.00;;;;;;5038913;28;20048;-74
2021/01/28 08:03:13;;;;;;;14.63;10.02;;;9.60;96.00;;;;;;5034246;28;20056;-77
2021/01/28 08:05:39;;;;;;;15.73;10.43;;;9.70;96.00;;;;;;5038991;28;20044;-74
2021/01/28 08:08:11;;;;;;;16.08;11.38;;;9.70;95.90;;;;;;5034658;28;20521;-75
2021/01/28 08:10:41;;;;;;;14.23;10.45;;;9.80;95.90;;;;;;5036655;28;20049;-75
2021/01/28 08:13:27;;;;;;;15.05;10.23;;;9.80;95.90;;;;;;5040224;28;21276;-75
2021/01/28 08:16:06;;;;;;;16.15;10.65;;;9.80;95.90;;;;;;5036990;28;20044;-75
2021/01/28 08:18:37;;;;;;;14.57;10.95;;;9.90;95.90;;;;;;5034444;28;20055;-73
2021/01/28 08:21:12;;;;;;;16.13;10.43;;;9.90;95.80;;;;;;5031398;28;20063;-74
2021/01/28 08:23:39;;;;;;;15.23;8.85;;;9.90;95.80;;;;;;5039800;28;20417;-76
2021/01/28 08:26:21;;;;;;;12.13;7.82;;;10.00;95.80;;;;;;5036035;28;20037;-76
2021/01/28 08:28:47;;;;;;;12.25;7.22;;;10.00;95.70;;;;;;5036970;28;20036;-73
2021/01/28 08:31:25;;;;;;;9.68;6.78;;;10.00;95.60;;;;;;5037078;28;20033;-75
2021/01/28 08:34:24;;;;;;;9.68;6.22;;;10.00;95.60;;;;;;5043878;28;20132;-74
2021/01/28 08:37:00;;;;;;;7.82;5.20;;;10.10;95.60;;;;;;5041532;28;20037;-74
2021/01/28 08:39:29;;;;;;;7.85;5.47;;;10.10;95.50;;;;;;5038665;28;20044;-72
2021/01/28 08:42:05;;;;;;;8.38;5.22;;;10.10;95.40;;;;;;5038823;28;20033;-74
2021/01/28 08:44:33;;;;;;;8.30;5.70;;;10.10;95.40;;;;;;5037955;28;20149;-73
2021/01/28 08:47:37;;;;;;;9.43;5.57;;;10.20;95.30;;;;;;5039093;28;20025;-73
2021/01/28 08:50:17;;;;;;;8.85;5.32;;;10.20;95.40;;;;;;5022494;28;20061;-73
2021/01/28 08:52:45;;;;;;;7.55;4.68;;;10.20;95.40;;;;;;5038024;28;20048;-72
2021/01/28 08:55:27;;;;;;;8.43;5.10;;;10.20;95.40;;;;;;5035914;28;20049;-69
2021/01/28 08:58:23;;;;;;;7.47;4.68;;;10.20;95.40;;;;;;5038050;28;20411;-69
2021/01/28 09:00:55;;;;;;;10.05;6.07;;;10.30;95.40;;;;;;5026861;28;20470;-71
2021/01/28 09:03:29;;;;;;;9.20;5.75;;;10.30;95.40;;;;;;5036893;28;20040;-72
2021/01/28 09:05:59;;;;;;;10.43;7.32;;;10.30;95.30;;;;;;5043930;28;20048;-68
2021/01/28 09:08:40;;;;;;;11.45;8.35;;;10.40;95.40;;;;;;5043921;28;20036;-69
2021/01/28 09:11:27;;;;;;;14.15;10.00;;;10.40;95.40;;;;;;5039377;28;20037;-71
2021/01/28 09:14:28;;;;;;;18.65;14.20;;;10.40;95.40;;;;;;5039432;28;20132;-70
2021/01/28 09:17:09;;;;;;;18.20;14.02;;;10.40;95.40;;;;;;5039545;28;20132;-69
2021/01/28 09:19:39;;;;;;;18.35;15.50;;;10.40;95.50;;;;;;5040629;28;20440;-71
2021/01/28 09:22:19;;;;;;;20.92;17.02;;;10.50;95.50;;;;;;5036802;28;20427;-71
2021/01/28 09:24:48;;;;;;;19.42;16.67;;;10.50;95.40;;;;;;5040717;28;20410;-69
2021/01/28 09:27:34;;;;;;;18.17;14.88;;;10.50;95.40;;;;;;5022748;28;20388;-73
2021/01/28 09:30:31;;;;;;;17.83;15.50;;;10.50;95.50;;;;;;5022025;28;20033;-72
2021/01/28 09:32:57;;;;;;;17.70;11.30;;;10.50;95.50;;;;;;5021887;28;20041;-70
2021/01/28 09:35:24;;;;;;;15.70;8.57;;;10.60;95.30;;;;;;5018579;28;20446;-73
2021/01/28 09:38:14;;;;;;;16.00;8.98;;;10.60;95.30;;;;;;5022099;28;20471;-69
2021/01/28 09:40:43;;;;;;;15.60;8.88;;;10.60;95.10;;;;;;5029662;28;20121;-72
2021/01/28 09:43:29;;;;;;;14.80;8.60;;;10.60;95.20;;;;;;5017362;28;20029;-69
2021/01/28 09:46:20;;;;;;;12.55;8.23;;;10.60;95.10;;;;;;5026505;28;21170;-70
2021/01/28 09:48:55;;;;;;;15.00;8.23;;;10.60;95.20;;;;;;5024843;28;20135;-71
2021/01/28 09:51:29;;;;;;;12.45;8.13;;;10.60;95.20;;;;;;5026772;28;20439;-70
2021/01/28 09:54:17;;;;;;;16.00;9.15;;;10.60;95.30;;;;;;5028278;28;20045;-70
2021/01/28 09:56:43;;;;;;;17.60;10.57;;;10.70;95.30;;;;;;5027832;28;20443;-72
2021/01/28 09:59:10;;;;;;;15.75;10.75;;;10.70;95.20;;;;;;5034494;28;20092;-69
2021/01/28 10:01:36;;;;;;;16.23;10.43;;;10.70;95.10;;;;;;5015430;28;20299;-72
2021/01/28 10:04:02;;;;;;;14.55;9.10;;;10.60;95.10;;;;;;5019385;28;20203;-70
2021/01/28 10:06:27;;;;;;;15.35;8.10;;;10.60;95.10;;;;;;5025365;28;20491;-70
2021/01/28 10:08:53;;;;;;;11.60;7.85;;;10.70;95.10;;;;;;5027376;28;20064;-72
2021/01/28 10:11:19;;;;;;;15.13;8.15;;;10.60;95.10;;;;;;5032321;28;20477;-68
2021/01/28 10:13:45;;;;;;;16.50;8.80;;;10.70;95.00;;;;;;5029031;28;20531;-72
2021/01/28 10:16:11;;;;;;;15.85;8.18;;;10.70;95.10;;;;;;5026748;28;20613;-69
2021/01/28 10:18:36;;;;;;;21.35;10.80;;;10.70;95.00;;;;;;5027666;28;20082;-71
2021/01/28 10:21:02;;;;;;;17.23;9.45;;;10.80;95.00;;;;;;5028225;28;20025;-69
2021/01/28 10:23:28;;;;;;;15.23;7.80;;;10.80;94.90;;;;;;5025308;28;20029;-71
2021/01/28 10:25:53;;;;;;;18.15;7.63;;;10.90;94.80;;;;;;5030435;28;20033;-68
2021/01/28 10:28:19;;;;;;;15.63;6.45;;;10.80;94.70;;;;;;5034944;28;20465;-70
2021/01/28 10:30:44;;;;;;;14.32;6.45;;;10.90;94.60;;;;;;5036925;28;20029;-67
2021/01/28 10:33:11;;;;;;;11.60;5.53;;;11.00;94.50;;;;;;5025276;28;20038;-69
2021/01/28 10:35:37;;;;;;;12.70;5.47;;;11.10;94.40;;;;;;5026349;28;20082;-70
2021/01/28 10:38:07;;;;;;;11.73;5.28;;;11.10;94.40;;;;;;5023578;28;20460;-68
2021/01/28 10:40:33;;;;;;;12.27;5.35;;;11.20;94.10;;;;;;5032079;28;20085;-71
2021/01/28 10:43:04;;;;;;;16.92;5.30;;;11.30;94.10;;;;;;5033398;28;20036;-68
2021/01/28 10:45:36;;;;;;;11.93;5.43;;;11.30;94.00;;;;;;5033746;28;20060;-69
2021/01/28 10:48:04;;;;;;;12.80;4.93;;;11.40;93.80;;;;;;5030835;28;20044;-68
2021/01/28 10:50:33;;;;;;;8.88;4.30;;;11.40;93.50;;;;;;5027919;28;20120;-69
2021/01/28 10:52:58;;;;;;;12.23;5.75;;;11.40;93.40;;;;;;5031697;28;20040;-69
2021/01/28 10:55:26;;;;;;;10.77;4.38;;;11.50;93.50;;;;;;5029729;28;20029;-71
2021/01/28 10:57:52;;;;;;;12.50;5.10;;;11.50;93.40;;;;;;5029839;28;20024;-70
2021/01/28 11:00:19;;;;;;;9.50;4.13;;;11.40;93.40;;;;;;5032421;28;20060;-71
2021/01/28 11:02:44;;;;;;;10.38;4.40;;;11.50;93.50;;;;;;5035014;28;20041;-69
2021/01/28 11:05:20;;;;;;;10.77;4.28;;;11.50;93.40;;;;;;5035511;28;20025;-69
2021/01/28 11:07:45;;;;;;;8.27;4.10;;;11.50;93.20;;;;;;5021608;28;20036;-71
2021/01/28 11:10:13;;;;;;;7.95;3.78;;;11.60;93.20;;;;;;5016421;28;21383;-67
2021/01/28 11:12:38;;;;;;;9.93;4.00;;;11.60;93.00;;;;;;5022854;28;20434;-69
2021/01/28 11:15:05;;;;;;;9.85;4.03;;;11.60;93.00;;;;;;5021556;28;20041;-72
2021/01/28 11:17:31;;;;;;;9.52;3.35;;;11.50;93.00;;;;;;5019528;28;20324;-68
2021/01/28 11:19:56;;;;;;;6.35;3.03;;;11.50;92.80;;;;;;5023020;28;20116;-69
2021/01/28 11:22:22;;;;;;;9.80;3.85;;;11.60;92.50;;;;;;5015584;28;20548;-69
2021/01/28 11:24:48;;;;;;;7.47;3.50;;;11.60;92.40;;;;;;5019612;28;20112;-71
2021/01/28 11:27:14;;;;;;;6.38;2.80;;;11.70;92.20;;;;;;5017778;28;20155;-68
2021/01/28 11:29:41;;;;;;;9.52;3.40;;;11.70;92.10;;;;;;5015065;28;20039;-70
2021/01/28 11:32:08;;;;;;;6.07;3.22;;;11.70;92.10;;;;;;5020704;28;20381;-68
2021/01/28 11:34:33;;;;;;;5.68;2.75;;;11.70;91.80;;;;;;5019546;28;20025;-70
2021/01/28 11:36:59;;;;;;;6.90;3.63;;;11.70;91.50;;;;;;5031033;28;20076;-68
2021/01/28 11:39:24;;;;;;;6.97;3.08;;;11.60;91.60;;;;;;5029874;28;20045;-70
2021/01/28 11:41:50;;;;;;;8.30;3.38;;;11.60;91.70;;;;;;5031500;28;20041;-69
2021/01/28 11:44:16;;;;;;;8.35;2.83;;;11.60;91.70;;;;;;5023943;28;20308;-71
2021/01/28 11:46:41;;;;;;;7.63;2.80;;;11.70;91.60;;;;;;5029174;28;20189;-69
2021/01/28 11:49:07;;;;;;;7.85;3.28;;;11.70;91.50;;;;;;5024097;28;20025;-70
2021/01/28 11:51:32;;;;;;;6.85;3.15;;;11.90;91.40;;;;;;5027585;28;20135;-68
2021/01/28 11:53:58;;;;;;;7.60;3.03;;;11.80;91.30;;;;;;5027252;28;21797;-68
2021/01/28 11:56:24;;;;;;;11.10;3.67;;;11.90;91.30;;;;;;5032023;28;20576;-68
2021/01/28 11:58:50;;;;;;;10.00;3.53;;;11.90;91.40;;;;;;5034229;28;20040;-70
2021/01/28 12:01:15;;;;;;;9.45;3.00;;;11.80;91.60;;;;;;5033122;28;20671;-69
2021/01/28 12:03:41;;;;;;;8.10;3.22;;;11.80;91.30;;;;;;5034437;28;20086;-69
2021/01/28 12:06:07;;;;;;;10.23;3.50;;;11.80;91.30;;;;;;5031724;28;20037;-69
2021/01/28 12:08:32;;;;;;;11.18;4.22;;;12.00;90.90;;;;;;5033089;28;20132;-69
2021/01/28 12:10:58;;;;;;;12.82;4.57;;;12.00;90.70;;;;;;5028165;28;20368;-71
2021/01/28 12:13:23;;;;;;;9.45;4.10;;;11.90;91.00;;;;;;5033443;28;20048;-69
2021/01/28 12:15:49;;;;;;;9.98;4.30;;;11.90;90.70;;;;;;5029431;28;20061;-71
2021/01/28 12:18:15;;;;;;;9.77;3.63;;;11.90;90.90;;;;;;5036728;28;20764;-67
2021/01/28 12:20:40;;;;;;;10.68;3.70;;;12.00;90.80;;;;;;5029516;28;20337;-68
2021/01/28 12:23:06;;;;;;;10.35;4.38;;;12.00;90.30;;;;;;5030843;28;20519;-67
2021/01/28 12:25:32;;;;;;;11.00;4.28;;;12.00;90.40;;;;;;5034078;28;20041;-68
2021/01/28 12:27:57;;;;;;;9.05;4.60;;;12.00;90.60;;;;;;5029832;28;20040;-69
2021/01/28 12:30:25;;;;;;;6.93;3.20;;;12.10;90.10;;;;;;5035622;28;20480;-69
2021/01/28 12:32:51;;;;;;;7.82;3.38;;;12.20;89.90;;;;;;5031404;28;20021;-69
2021/01/28 12:35:19;;;;;;;8.05;3.10;;;12.20;89.70;;;;;;5029808;28;20120;-69
2021/01/28 12:37:44;;;;;;;12.25;4.43;;;12.20;89.40;;;;;;5033341;28;20073;-68
2021/01/28 12:40:13;;;;;;;10.02;3.88;;;12.20;89.50;;;;;;5031002;28;20468;-69
2021/01/28 12:42:38;;;;;;;10.88;4.70;;;12.20;89.70;;;;;;5037844;28;20040;-69
2021/01/28 12:45:06;;;;;;;11.98;4.32;;;12.20;89.50;;;;;;5033575;28;20037;-68
2021/01/28 12:47:31;;;;;;;11.18;4.45;;;12.10;89.60;;;;;;5032311;28;20476;-69
2021/01/28 12:49:57;;;;;;;10.30;4.18;;;12.10;89.60;;;;;;5033380;28;20041;-70
2021/01/28 12:52:23;;;;;;;12.55;4.45;;;12.10;89.60;;;;;;5031219;28;20108;-69
2021/01/28 12:54:50;;;;;;;12.02;4.30;;;12.20;89.00;;;;;;5034385;28;20033;-68
2021/01/28 12:57:15;;;;;;;12.82;4.00;;;12.20;89.00;;;;;;5031187;28;20417;-70
2021/01/28 12:59:41;;;;;;;13.45;3.88;;;12.10;88.60;;;;;;5031847;28;20044;-71
2021/01/28 13:02:07;;;;;;;13.15;3.55;;;12.10;88.20;;;;;;5034156;28;20075;-70
2021/01/28 13:04:32;;;;;;;12.07;3.17;;;12.10;87.70;;;;;;5033280;28;20156;-69
2021/01/28 13:06:58;;;;;;;9.15;2.92;;;12.10;87.30;;;;;;5033106;28;20126;-70
2021/01/28 13:09:24;;;;;;;11.77;2.90;;;12.10;87.40;;;;;;5038230;28;20025;-69
2021/01/28 13:11:49;;;;;;;10.15;2.95;;;12.10;87.00;;;;;;5034733;28;20510;-69
2021/01/28 13:14:15;;;;;;;13.35;3.67;;;12.10;87.20;;;;;;5041396;28;20041;-69
2021/01/28 13:16:41;;;;;;;12.07;4.05;;;12.10;87.30;;;;;;5044164;28;20041;-70
2021/01/28 13:19:07;;;;;;;9.25;3.03;;;12.10;86.60;;;;;;5044589;28;20031;-70
2021/01/28 13:21:33;;;;;;;14.70;3.70;;;12.10;86.60;;;;;;5042719;28;20492;-68
2021/01/28 13:23:59;;;;;;;14.05;3.08;;;12.10;86.70;;;;;;5040349;28;20052;-69
2021/01/28 13:26:24;;;;;;;10.63;3.03;;;12.10;86.70;;;;;;5038826;28;20628;-68
2021/01/28 13:28:50;;;;;;;11.18;4.22;;;12.10;86.80;;;;;;5037851;28;20025;-69
2021/01/28 13:31:16;;;;;;;11.38;3.75;;;12.10;86.80;;;;;;5032419;28;20099;-68